sensor_id;sensor_type;location;lat;lon;timestamp;P1;durP1;ratioP1;P2;durP2;ratioP2
48777;SDS011;34578;0.000;0.000;2024-02-14T00:01:42;3.20;;;1.00;;
48777;SDS011;34578;0.000;0.000;2024-02-14T00:06:43;5.32;;;1.55;;
48777;SDS011;34578;0.000;0.000;2024-02-14T00:11:43;3.20;;;1.47;;
48777;SDS011;34578;0.000;0.000;2024-02-14T00:16:44;3.55;;;1.23;;
48777;SDS011;34578;0.000;0.000;2024-02-14T00:21:44;2.97;;;1.10;;
48777;SDS011;34578;0.000;0.000;2024-02-14T00:26:45;2.03;;;1.27;;
48777;SDS011;34578;0.000;0.000;2024-02-14T00:31:46;3.22;;;1.15;;
48777;SDS011;34578;0.000;0.000;2024-02-14T00:36:46;3.90;;;1.70;;
48777;SDS011;34578;0.000;0.000;2024-02-14T00:41:46;3.13;;;2.10;;
48777;SDS011;34578;0.000;0.000;2024-02-14T00:46:47;3.70;;;1.30;;
48777;SDS011;34578;0.000;0.000;2024-02-14T00:51:48;2.80;;;1.48;;
48777;SDS011;34578;0.000;0.000;2024-02-14T00:56:48;3.33;;;1.20;;
48777;SDS011;34578;0.000;0.000;2024-02-14T01:01:49;2.53;;;1.15;;
48777;SDS011;34578;0.000;0.000;2024-02-14T01:06:49;3.27;;;0.87;;
48777;SDS011;34578;0.000;0.000;2024-02-14T01:11:51;2.20;;;1.25;;
48777;SDS011;34578;0.000;0.000;2024-02-14T01:16:51;2.37;;;0.90;;
48777;SDS011;34578;0.000;0.000;2024-02-14T01:21:54;1.98;;;1.27;;
48777;SDS011;34578;0.000;0.000;2024-02-14T01:26:55;3.75;;;1.15;;
48777;SDS011;34578;0.000;0.000;2024-02-14T01:31:56;1.65;;;0.90;;
48777;SDS011;34578;0.000;0.000;2024-02-14T01:36:56;1.85;;;0.95;;
48777;SDS011;34578;0.000;0.000;2024-02-14T01:41:57;3.33;;;1.13;;
48777;SDS011;34578;0.000;0.000;2024-02-14T01:46:57;2.92;;;1.23;;
48777;SDS011;34578;0.000;0.000;2024-02-14T01:51:59;1.75;;;1.17;;
48777;SDS011;34578;0.000;0.000;2024-02-14T01:57:02;1.50;;;1.10;;
48777;SDS011;34578;0.000;0.000;2024-02-14T02:02:04;1.90;;;1.02;;
48777;SDS011;34578;0.000;0.000;2024-02-14T02:07:09;2.13;;;1.00;;
48777;SDS011;34578;0.000;0.000;2024-02-14T02:12:09;1.77;;;0.97;;
48777;SDS011;34578;0.000;0.000;2024-02-14T02:17:09;1.17;;;0.80;;
48777;SDS011;34578;0.000;0.000;2024-02-14T02:22:11;3.42;;;1.55;;
48777;SDS011;34578;0.000;0.000;2024-02-14T02:27:11;4.43;;;1.40;;
48777;SDS011;34578;0.000;0.000;2024-02-14T02:32:13;2.78;;;0.98;;
48777;SDS011;34578;0.000;0.000;2024-02-14T02:37:16;2.88;;;0.95;;
48777;SDS011;34578;0.000;0.000;2024-02-14T02:42:18;1.15;;;0.77;;
48777;SDS011;34578;0.000;0.000;2024-02-14T02:47:18;2.72;;;0.80;;
48777;SDS011;34578;0.000;0.000;2024-02-14T02:52:18;2.22;;;1.13;;
48777;SDS011;34578;0.000;0.000;2024-02-14T02:57:19;1.20;;;1.00;;
48777;SDS011;34578;0.000;0.000;2024-02-14T03:02:19;1.67;;;1.23;;
48777;SDS011;34578;0.000;0.000;2024-02-14T03:07:20;2.08;;;0.95;;
48777;SDS011;34578;0.000;0.000;2024-02-14T03:12:20;1.77;;;0.73;;
48777;SDS011;34578;0.000;0.000;2024-02-14T03:17:23;2.60;;;1.05;;
48777;SDS011;34578;0.000;0.000;2024-02-14T03:22:23;2.10;;;0.93;;
48777;SDS011;34578;0.000;0.000;2024-02-14T03:27:23;2.33;;;0.97;;
48777;SDS011;34578;0.000;0.000;2024-02-14T03:32:26;1.70;;;0.90;;
48777;SDS011;34578;0.000;0.000;2024-02-14T03:37:26;1.77;;;0.90;;
48777;SDS011;34578;0.000;0.000;2024-02-14T03:42:27;2.40;;;0.95;;
48777;SDS011;34578;0.000;0.000;2024-02-14T03:47:30;1.60;;;1.00;;
48777;SDS011;34578;0.000;0.000;2024-02-14T03:52:34;1.65;;;0.80;;
48777;SDS011;34578;0.000;0.000;2024-02-14T03:57:34;5.20;;;1.03;;
48777;SDS011;34578;0.000;0.000;2024-02-14T04:02:38;1.45;;;0.88;;
48777;SDS011;34578;0.000;0.000;2024-02-14T04:07:39;1.90;;;0.68;;
48777;SDS011;34578;0.000;0.000;2024-02-14T04:12:39;2.42;;;0.95;;
48777;SDS011;34578;0.000;0.000;2024-02-14T04:17:40;4.93;;;0.82;;
48777;SDS011;34578;0.000;0.000;2024-02-14T04:22:40;2.93;;;1.00;;
48777;SDS011;34578;0.000;0.000;2024-02-14T04:27:43;1.45;;;1.00;;
48777;SDS011;34578;0.000;0.000;2024-02-14T04:32:43;1.43;;;0.70;;
48777;SDS011;34578;0.000;0.000;2024-02-14T04:37:44;2.53;;;0.77;;
48777;SDS011;34578;0.000;0.000;2024-02-14T04:42:46;1.13;;;0.60;;
48777;SDS011;34578;0.000;0.000;2024-02-14T04:47:46;2.72;;;0.80;;
48777;SDS011;34578;0.000;0.000;2024-02-14T04:52:47;2.93;;;1.00;;
48777;SDS011;34578;0.000;0.000;2024-02-14T04:57:47;0.90;;;0.70;;
48777;SDS011;34578;0.000;0.000;2024-02-14T05:02:48;1.30;;;0.60;;
48777;SDS011;34578;0.000;0.000;2024-02-14T05:07:49;2.97;;;0.75;;
48777;SDS011;34578;0.000;0.000;2024-02-14T05:12:49;1.33;;;0.80;;
48777;SDS011;34578;0.000;0.000;2024-02-14T05:17:50;1.90;;;0.90;;
48777;SDS011;34578;0.000;0.000;2024-02-14T05:22:51;1.85;;;0.70;;
48777;SDS011;34578;0.000;0.000;2024-02-14T05:27:52;1.85;;;1.00;;
48777;SDS011;34578;0.000;0.000;2024-02-14T05:32:53;2.40;;;0.70;;
48777;SDS011;34578;0.000;0.000;2024-02-14T05:37:54;1.52;;;0.70;;
48777;SDS011;34578;0.000;0.000;2024-02-14T05:42:55;1.23;;;0.50;;
48777;SDS011;34578;0.000;0.000;2024-02-14T05:47:56;1.58;;;0.70;;
48777;SDS011;34578;0.000;0.000;2024-02-14T05:52:56;3.77;;;1.07;;
48777;SDS011;34578;0.000;0.000;2024-02-14T05:57:58;1.65;;;0.70;;
48777;SDS011;34578;0.000;0.000;2024-02-14T06:02:59;2.10;;;0.80;;
48777;SDS011;34578;0.000;0.000;2024-02-14T06:07:59;1.03;;;0.67;;
48777;SDS011;34578;0.000;0.000;2024-02-14T06:13:02;3.28;;;1.15;;
48777;SDS011;34578;0.000;0.000;2024-02-14T06:18:03;1.48;;;0.77;;
48777;SDS011;34578;0.000;0.000;2024-02-14T06:23:03;1.80;;;1.10;;
48777;SDS011;34578;0.000;0.000;2024-02-14T06:28:04;1.57;;;0.60;;
48777;SDS011;34578;0.000;0.000;2024-02-14T06:33:04;1.30;;;1.00;;
48777;SDS011;34578;0.000;0.000;2024-02-14T06:38:05;0.60;;;0.40;;
48777;SDS011;34578;0.000;0.000;2024-02-14T06:43:06;0.88;;;0.80;;
48777;SDS011;34578;0.000;0.000;2024-02-14T06:48:07;1.75;;;0.65;;
48777;SDS011;34578;0.000;0.000;2024-02-14T06:53:08;0.75;;;0.50;;
48777;SDS011;34578;0.000;0.000;2024-02-14T06:58:09;0.80;;;0.80;;
48777;SDS011;34578;0.000;0.000;2024-02-14T07:03:09;0.93;;;0.70;;
48777;SDS011;34578;0.000;0.000;2024-02-14T07:08:09;0.47;;;0.47;;
48777;SDS011;34578;0.000;0.000;2024-02-14T07:13:10;2.37;;;0.80;;
48777;SDS011;34578;0.000;0.000;2024-02-14T07:18:10;2.43;;;0.70;;
48777;SDS011;34578;0.000;0.000;2024-02-14T07:23:11;2.47;;;0.88;;
48777;SDS011;34578;0.000;0.000;2024-02-14T07:28:11;1.63;;;0.97;;
48777;SDS011;34578;0.000;0.000;2024-02-14T07:33:11;1.83;;;0.80;;
48777;SDS011;34578;0.000;0.000;2024-02-14T07:38:13;2.65;;;1.67;;
48777;SDS011;34578;0.000;0.000;2024-02-14T07:43:13;3.20;;;1.70;;
48777;SDS011;34578;0.000;0.000;2024-02-14T07:48:14;4.80;;;2.72;;
48777;SDS011;34578;0.000;0.000;2024-02-14T07:53:14;19.40;;;8.30;;
48777;SDS011;34578;0.000;0.000;2024-02-14T07:58:14;23.77;;;10.17;;
48777;SDS011;34578;0.000;0.000;2024-02-14T08:03:15;43.93;;;20.10;;
48777;SDS011;34578;0.000;0.000;2024-02-14T08:08:15;42.10;;;20.90;;
48777;SDS011;34578;0.000;0.000;2024-02-14T08:13:15;58.97;;;28.43;;
48777;SDS011;34578;0.000;0.000;2024-02-14T08:18:17;46.47;;;24.77;;
48777;SDS011;34578;0.000;0.000;2024-02-14T08:23:17;50.60;;;24.50;;
48777;SDS011;34578;0.000;0.000;2024-02-14T08:28:18;43.77;;;21.90;;
48777;SDS011;34578;0.000;0.000;2024-02-14T08:33:18;47.03;;;24.05;;
48777;SDS011;34578;0.000;0.000;2024-02-14T08:38:19;43.33;;;20.00;;
48777;SDS011;34578;0.000;0.000;2024-02-14T08:43:20;45.40;;;20.95;;
48777;SDS011;34578;0.000;0.000;2024-02-14T08:48:20;40.93;;;18.80;;
48777;SDS011;34578;0.000;0.000;2024-02-14T08:53:21;46.92;;;21.67;;
48777;SDS011;34578;0.000;0.000;2024-02-14T08:58:22;35.97;;;17.35;;
48777;SDS011;34578;0.000;0.000;2024-02-14T09:03:24;43.85;;;19.77;;
48777;SDS011;34578;0.000;0.000;2024-02-14T09:08:24;45.37;;;22.40;;
48777;SDS011;34578;0.000;0.000;2024-02-14T09:13:25;48.70;;;22.55;;
48777;SDS011;34578;0.000;0.000;2024-02-14T09:18:27;40.90;;;20.45;;
48777;SDS011;34578;0.000;0.000;2024-02-14T09:23:27;42.07;;;19.40;;
48777;SDS011;34578;0.000;0.000;2024-02-14T09:28:28;38.03;;;20.50;;
48777;SDS011;34578;0.000;0.000;2024-02-14T09:33:28;41.57;;;19.80;;
48777;SDS011;34578;0.000;0.000;2024-02-14T09:38:28;37.77;;;18.10;;
48777;SDS011;34578;0.000;0.000;2024-02-14T09:43:36;39.92;;;18.90;;
48777;SDS011;34578;0.000;0.000;2024-02-14T09:48:47;40.63;;;17.75;;
48777;SDS011;34578;0.000;0.000;2024-02-14T09:53:47;37.33;;;17.55;;
48777;SDS011;34578;0.000;0.000;2024-02-14T09:58:49;31.25;;;16.38;;
48777;SDS011;34578;0.000;0.000;2024-02-14T10:03:56;29.50;;;15.32;;
48777;SDS011;34578;0.000;0.000;2024-02-14T10:08:56;31.93;;;16.47;;
48777;SDS011;34578;0.000;0.000;2024-02-14T10:13:57;32.10;;;15.38;;
48777;SDS011;34578;0.000;0.000;2024-02-14T10:19:02;31.38;;;15.57;;
48777;SDS011;34578;0.000;0.000;2024-02-14T10:24:03;30.52;;;15.60;;
48777;SDS011;34578;0.000;0.000;2024-02-14T10:29:05;29.83;;;15.50;;
48777;SDS011;34578;0.000;0.000;2024-02-14T10:34:06;28.52;;;14.45;;
48777;SDS011;34578;0.000;0.000;2024-02-14T10:39:08;29.75;;;15.75;;
48777;SDS011;34578;0.000;0.000;2024-02-14T10:44:11;27.60;;;14.15;;
48777;SDS011;34578;0.000;0.000;2024-02-14T10:49:12;29.00;;;13.95;;
48777;SDS011;34578;0.000;0.000;2024-02-14T10:54:16;23.58;;;13.13;;
48777;SDS011;34578;0.000;0.000;2024-02-14T10:59:17;21.73;;;12.90;;
48777;SDS011;34578;0.000;0.000;2024-02-14T11:04:21;26.35;;;12.88;;
48777;SDS011;34578;0.000;0.000;2024-02-14T11:09:22;23.80;;;12.05;;
48777;SDS011;34578;0.000;0.000;2024-02-14T11:14:31;22.98;;;12.15;;
48777;SDS011;34578;0.000;0.000;2024-02-14T11:19:33;20.45;;;11.52;;
48777;SDS011;34578;0.000;0.000;2024-02-14T11:24:36;21.42;;;11.48;;
48777;SDS011;34578;0.000;0.000;2024-02-14T11:29:38;20.25;;;10.50;;
48777;SDS011;34578;0.000;0.000;2024-02-14T11:34:40;21.05;;;10.75;;
48777;SDS011;34578;0.000;0.000;2024-02-14T11:39:41;16.03;;;9.47;;
48777;SDS011;34578;0.000;0.000;2024-02-14T11:44:41;19.20;;;10.33;;
48777;SDS011;34578;0.000;0.000;2024-02-14T11:49:42;18.67;;;10.13;;
48777;SDS011;34578;0.000;0.000;2024-02-14T11:54:46;18.05;;;9.50;;
48777;SDS011;34578;0.000;0.000;2024-02-14T11:59:50;19.98;;;10.77;;
48777;SDS011;34578;0.000;0.000;2024-02-14T12:04:52;17.60;;;9.20;;
48777;SDS011;34578;0.000;0.000;2024-02-14T12:09:55;17.00;;;9.95;;
48777;SDS011;34578;0.000;0.000;2024-02-14T12:14:55;13.07;;;6.70;;
48777;SDS011;34578;0.000;0.000;2024-02-14T12:20:07;15.30;;;8.18;;
48777;SDS011;34578;0.000;0.000;2024-02-14T12:25:09;21.88;;;8.10;;
48777;SDS011;34578;0.000;0.000;2024-02-14T12:30:11;20.40;;;9.50;;
48777;SDS011;34578;0.000;0.000;2024-02-14T12:35:12;16.02;;;9.32;;
48777;SDS011;34578;0.000;0.000;2024-02-14T12:40:12;20.57;;;10.47;;
48777;SDS011;34578;0.000;0.000;2024-02-14T12:45:12;17.40;;;9.13;;
48777;SDS011;34578;0.000;0.000;2024-02-14T12:50:13;19.00;;;10.33;;
48777;SDS011;34578;0.000;0.000;2024-02-14T12:55:14;19.40;;;10.98;;
48777;SDS011;34578;0.000;0.000;2024-02-14T13:00:15;25.38;;;11.27;;
48777;SDS011;34578;0.000;0.000;2024-02-14T13:05:16;17.15;;;9.98;;
48777;SDS011;34578;0.000;0.000;2024-02-14T13:10:17;18.98;;;11.15;;
48777;SDS011;34578;0.000;0.000;2024-02-14T13:15:18;23.05;;;9.88;;
48777;SDS011;34578;0.000;0.000;2024-02-14T13:20:18;21.50;;;10.27;;
48777;SDS011;34578;0.000;0.000;2024-02-14T13:25:18;18.53;;;9.37;;
48777;SDS011;34578;0.000;0.000;2024-02-14T13:30:19;18.70;;;9.67;;
48777;SDS011;34578;0.000;0.000;2024-02-14T13:35:19;26.87;;;10.40;;
48777;SDS011;34578;0.000;0.000;2024-02-14T13:40:19;22.23;;;9.83;;
48777;SDS011;34578;0.000;0.000;2024-02-14T13:45:20;20.27;;;10.13;;
48777;SDS011;34578;0.000;0.000;2024-02-14T13:50:22;21.58;;;8.90;;
48777;SDS011;34578;0.000;0.000;2024-02-14T13:55:22;25.07;;;9.07;;
48777;SDS011;34578;0.000;0.000;2024-02-14T14:00:22;14.20;;;7.83;;
48777;SDS011;34578;0.000;0.000;2024-02-14T14:05:23;15.47;;;7.17;;
48777;SDS011;34578;0.000;0.000;2024-02-14T14:10:23;16.95;;;7.32;;
48777;SDS011;34578;0.000;0.000;2024-02-14T14:15:26;13.50;;;7.60;;
48777;SDS011;34578;0.000;0.000;2024-02-14T14:20:26;13.25;;;7.32;;
48777;SDS011;34578;0.000;0.000;2024-02-14T14:25:27;18.90;;;8.68;;
48777;SDS011;34578;0.000;0.000;2024-02-14T14:30:28;15.75;;;6.75;;
48777;SDS011;34578;0.000;0.000;2024-02-14T14:35:29;16.03;;;7.13;;
48777;SDS011;34578;0.000;0.000;2024-02-14T14:40:31;17.30;;;7.18;;
48777;SDS011;34578;0.000;0.000;2024-02-14T14:45:32;17.45;;;6.50;;
48777;SDS011;34578;0.000;0.000;2024-02-14T14:50:32;21.35;;;6.32;;
48777;SDS011;34578;0.000;0.000;2024-02-14T15:00:53;14.85;;;6.60;;
48777;SDS011;34578;0.000;0.000;2024-02-14T15:05:58;12.77;;;5.82;;
48777;SDS011;34578;0.000;0.000;2024-02-14T15:10:59;13.20;;;6.40;;
48777;SDS011;34578;0.000;0.000;2024-02-14T15:15:59;16.05;;;6.28;;
48777;SDS011;34578;0.000;0.000;2024-02-14T15:21:03;15.73;;;5.68;;
48777;SDS011;34578;0.000;0.000;2024-02-14T15:26:03;24.77;;;6.63;;
48777;SDS011;34578;0.000;0.000;2024-02-14T15:31:06;10.40;;;5.93;;
48777;SDS011;34578;0.000;0.000;2024-02-14T15:36:26;14.10;;;5.60;;
48777;SDS011;34578;0.000;0.000;2024-02-14T15:41:27;15.47;;;5.53;;
48777;SDS011;34578;0.000;0.000;2024-02-14T15:46:27;13.88;;;6.50;;
48777;SDS011;34578;0.000;0.000;2024-02-14T15:51:28;10.80;;;5.43;;
48777;SDS011;34578;0.000;0.000;2024-02-14T15:56:28;15.02;;;6.05;;
48777;SDS011;34578;0.000;0.000;2024-02-14T16:01:29;12.70;;;5.85;;
48777;SDS011;34578;0.000;0.000;2024-02-14T16:06:29;16.27;;;5.20;;
48777;SDS011;34578;0.000;0.000;2024-02-14T16:11:29;17.67;;;5.67;;
48777;SDS011;34578;0.000;0.000;2024-02-14T16:16:31;23.20;;;5.80;;
48777;SDS011;34578;0.000;0.000;2024-02-14T16:21:31;27.25;;;7.13;;
48777;SDS011;34578;0.000;0.000;2024-02-14T16:26:34;15.30;;;6.25;;
48777;SDS011;34578;0.000;0.000;2024-02-14T16:31:35;22.30;;;5.40;;
48777;SDS011;34578;0.000;0.000;2024-02-14T16:36:35;21.03;;;5.53;;
48777;SDS011;34578;0.000;0.000;2024-02-14T16:41:35;14.03;;;4.93;;
48777;SDS011;34578;0.000;0.000;2024-02-14T16:46:37;15.40;;;5.28;;
48777;SDS011;34578;0.000;0.000;2024-02-14T16:51:38;10.90;;;4.23;;
48777;SDS011;34578;0.000;0.000;2024-02-14T16:56:38;13.27;;;4.83;;
48777;SDS011;34578;0.000;0.000;2024-02-14T17:01:38;18.17;;;5.23;;
48777;SDS011;34578;0.000;0.000;2024-02-14T17:06:39;20.70;;;5.07;;
48777;SDS011;34578;0.000;0.000;2024-02-14T17:11:39;18.73;;;5.80;;
48777;SDS011;34578;0.000;0.000;2024-02-14T17:16:40;14.63;;;6.40;;
48777;SDS011;34578;0.000;0.000;2024-02-14T17:21:42;16.33;;;8.32;;
48777;SDS011;34578;0.000;0.000;2024-02-14T17:26:43;22.10;;;9.32;;
48777;SDS011;34578;0.000;0.000;2024-02-14T17:31:44;26.00;;;10.03;;
48777;SDS011;34578;0.000;0.000;2024-02-14T17:36:45;20.63;;;8.73;;
48777;SDS011;34578;0.000;0.000;2024-02-14T17:41:45;21.75;;;9.43;;
48777;SDS011;34578;0.000;0.000;2024-02-14T17:46:45;21.20;;;9.73;;
48777;SDS011;34578;0.000;0.000;2024-02-14T17:51:46;19.10;;;8.77;;
48777;SDS011;34578;0.000;0.000;2024-02-14T17:56:47;24.25;;;9.88;;
48777;SDS011;34578;0.000;0.000;2024-02-14T18:01:47;18.77;;;8.70;;
48777;SDS011;34578;0.000;0.000;2024-02-14T18:06:48;18.98;;;10.10;;
48777;SDS011;34578;0.000;0.000;2024-02-14T18:11:49;18.53;;;8.63;;
48777;SDS011;34578;0.000;0.000;2024-02-14T18:16:49;23.50;;;9.03;;
48777;SDS011;34578;0.000;0.000;2024-02-14T18:21:50;20.43;;;7.87;;
48777;SDS011;34578;0.000;0.000;2024-02-14T18:26:50;17.40;;;7.33;;
48777;SDS011;34578;0.000;0.000;2024-02-14T18:31:50;18.70;;;8.10;;
48777;SDS011;34578;0.000;0.000;2024-02-14T18:36:51;15.43;;;7.27;;
48777;SDS011;34578;0.000;0.000;2024-02-14T18:41:51;17.17;;;7.23;;
48777;SDS011;34578;0.000;0.000;2024-02-14T18:46:52;15.95;;;7.05;;
48777;SDS011;34578;0.000;0.000;2024-02-14T18:51:52;11.68;;;6.53;;
48777;SDS011;34578;0.000;0.000;2024-02-14T18:56:53;10.40;;;5.67;;
48777;SDS011;34578;0.000;0.000;2024-02-14T19:01:54;12.03;;;6.33;;
48777;SDS011;34578;0.000;0.000;2024-02-14T19:06:54;12.48;;;5.78;;
48777;SDS011;34578;0.000;0.000;2024-02-14T19:11:55;15.57;;;6.07;;
48777;SDS011;34578;0.000;0.000;2024-02-14T19:16:55;14.57;;;6.43;;
48777;SDS011;34578;0.000;0.000;2024-02-14T19:21:56;13.40;;;6.28;;
48777;SDS011;34578;0.000;0.000;2024-02-14T19:26:56;10.37;;;5.53;;
48777;SDS011;34578;0.000;0.000;2024-02-14T19:31:57;14.93;;;5.68;;
48777;SDS011;34578;0.000;0.000;2024-02-14T19:36:57;14.55;;;6.47;;
48777;SDS011;34578;0.000;0.000;2024-02-14T19:41:57;15.40;;;6.27;;
48777;SDS011;34578;0.000;0.000;2024-02-14T19:46:58;14.47;;;5.87;;
48777;SDS011;34578;0.000;0.000;2024-02-14T19:51:59;14.03;;;5.80;;
48777;SDS011;34578;0.000;0.000;2024-02-14T19:57:01;11.15;;;5.32;;
48777;SDS011;34578;0.000;0.000;2024-02-14T20:02:01;13.13;;;5.53;;
48777;SDS011;34578;0.000;0.000;2024-02-14T20:07:03;11.48;;;5.22;;
48777;SDS011;34578;0.000;0.000;2024-02-14T20:12:03;9.05;;;5.53;;
48777;SDS011;34578;0.000;0.000;2024-02-14T20:17:07;8.52;;;4.78;;
48777;SDS011;34578;0.000;0.000;2024-02-14T20:22:11;9.88;;;5.60;;
48777;SDS011;34578;0.000;0.000;2024-02-14T20:27:11;10.15;;;5.18;;
48777;SDS011;34578;0.000;0.000;2024-02-14T20:32:12;12.00;;;6.00;;
48777;SDS011;34578;0.000;0.000;2024-02-14T20:37:12;12.80;;;5.67;;
48777;SDS011;34578;0.000;0.000;2024-02-14T20:42:12;10.25;;;4.95;;
48777;SDS011;34578;0.000;0.000;2024-02-14T20:47:14;10.32;;;5.15;;
48777;SDS011;34578;0.000;0.000;2024-02-14T20:52:16;16.20;;;5.57;;
48777;SDS011;34578;0.000;0.000;2024-02-14T20:57:16;8.45;;;4.90;;
48777;SDS011;34578;0.000;0.000;2024-02-14T21:02:17;10.23;;;5.37;;
48777;SDS011;34578;0.000;0.000;2024-02-14T21:07:18;8.20;;;4.53;;
48777;SDS011;34578;0.000;0.000;2024-02-14T21:12:18;13.40;;;6.07;;
48777;SDS011;34578;0.000;0.000;2024-02-14T21:17:21;8.70;;;4.85;;
48777;SDS011;34578;0.000;0.000;2024-02-14T21:22:22;10.20;;;4.90;;
48777;SDS011;34578;0.000;0.000;2024-02-14T21:27:22;9.27;;;4.97;;
48777;SDS011;34578;0.000;0.000;2024-02-14T21:32:22;12.10;;;6.10;;
48777;SDS011;34578;0.000;0.000;2024-02-14T21:37:23;10.50;;;5.90;;
48777;SDS011;34578;0.000;0.000;2024-02-14T21:42:23;13.37;;;5.50;;
48777;SDS011;34578;0.000;0.000;2024-02-14T21:47:23;12.40;;;6.40;;
48777;SDS011;34578;0.000;0.000;2024-02-14T21:52:24;10.20;;;5.40;;
48777;SDS011;34578;0.000;0.000;2024-02-14T21:57:25;14.07;;;6.20;;
48777;SDS011;34578;0.000;0.000;2024-02-14T22:02:28;8.57;;;4.60;;
48777;SDS011;34578;0.000;0.000;2024-02-14T22:07:29;9.00;;;5.03;;
48777;SDS011;34578;0.000;0.000;2024-02-14T22:12:29;11.97;;;5.37;;
48777;SDS011;34578;0.000;0.000;2024-02-14T22:17:30;10.80;;;5.10;;
48777;SDS011;34578;0.000;0.000;2024-02-14T22:22:30;9.05;;;5.00;;
48777;SDS011;34578;0.000;0.000;2024-02-14T22:27:30;9.57;;;4.40;;
48777;SDS011;34578;0.000;0.000;2024-02-14T22:32:31;12.93;;;5.13;;
48777;SDS011;34578;0.000;0.000;2024-02-14T22:37:31;10.73;;;5.27;;
48777;SDS011;34578;0.000;0.000;2024-02-14T22:42:31;10.27;;;4.67;;
48777;SDS011;34578;0.000;0.000;2024-02-14T22:47:32;8.57;;;5.10;;
48777;SDS011;34578;0.000;0.000;2024-02-14T22:52:36;10.52;;;4.72;;
48777;SDS011;34578;0.000;0.000;2024-02-14T22:57:37;14.38;;;4.57;;
48777;SDS011;34578;0.000;0.000;2024-02-14T23:02:37;12.32;;;5.07;;
48777;SDS011;34578;0.000;0.000;2024-02-14T23:07:37;11.07;;;5.23;;
48777;SDS011;34578;0.000;0.000;2024-02-14T23:12:38;14.10;;;5.20;;
48777;SDS011;34578;0.000;0.000;2024-02-14T23:17:39;18.40;;;4.85;;
48777;SDS011;34578;0.000;0.000;2024-02-14T23:22:41;11.10;;;4.85;;
48777;SDS011;34578;0.000;0.000;2024-02-14T23:27:41;7.37;;;4.23;;
48777;SDS011;34578;0.000;0.000;2024-02-14T23:32:47;9.73;;;4.85;;
48777;SDS011;34578;0.000;0.000;2024-02-14T23:37:48;9.57;;;4.57;;
48777;SDS011;34578;0.000;0.000;2024-02-14T23:42:48;7.80;;;4.53;;
48777;SDS011;34578;0.000;0.000;2024-02-14T23:47:48;8.93;;;4.30;;
48777;SDS011;34578;0.000;0.000;2024-02-14T23:52:49;11.83;;;4.37;;
48777;SDS011;34578;0.000;0.000;2024-02-14T23:57:49;9.87;;;4.03;;
